createdAt,value
2023-03-02T00:01:10.457Z,10.60
2023-03-02T00:03:39.978Z,11.90
2023-03-02T00:06:08.942Z,10.43
2023-03-02T00:08:37.606Z,13.15
2023-03-02T00:11:05.476Z,12.38
2023-03-02T00:13:34.372Z,9.35
2023-03-02T00:16:01.690Z,11.93
2023-03-02T00:18:28.720Z,12.70
2023-03-02T00:20:55.780Z,14.90
2023-03-02T00:23:22.791Z,12.68
2023-03-02T00:25:50.311Z,12.45
2023-03-02T00:28:17.303Z,14.75
2023-03-02T00:30:44.256Z,13.73
2023-03-02T00:33:11.359Z,15.45
2023-03-02T00:35:40.097Z,15.70
2023-03-02T00:38:07.516Z,13.68
2023-03-02T00:40:36.039Z,16.35
2023-03-02T00:43:03.192Z,11.15
2023-03-02T00:45:30.643Z,14.75
2023-03-02T00:47:58.623Z,12.32
2023-03-02T00:50:25.643Z,13.48
2023-03-02T00:52:52.958Z,15.48
2023-03-02T00:55:20.078Z,14.48
2023-03-02T00:57:55.116Z,15.27
2023-03-02T01:00:28.800Z,11.95
2023-03-02T01:02:59.994Z,13.32
2023-03-02T01:05:27.473Z,10.90
2023-03-02T01:07:54.767Z,14.85
2023-03-02T01:10:21.754Z,16.35
2023-03-02T01:12:48.742Z,13.00
2023-03-02T01:15:16.306Z,14.60
2023-03-02T01:17:44.324Z,12.77
2023-03-02T01:20:12.339Z,18.48
2023-03-02T01:22:39.516Z,13.38
2023-03-02T01:25:07.083Z,15.95
2023-03-02T01:27:34.080Z,16.13
2023-03-02T01:30:01.310Z,14.13
2023-03-02T01:32:28.384Z,13.10
2023-03-02T01:34:55.901Z,17.67
2023-03-02T01:37:23.428Z,11.77
2023-03-02T01:39:50.943Z,12.63
2023-03-02T01:42:18.821Z,15.43
2023-03-02T01:44:49.234Z,10.88
2023-03-02T01:47:24.549Z,13.23
2023-03-02T01:50:24.836Z,11.82
2023-03-02T01:52:56.774Z,12.63
2023-03-02T01:55:29.146Z,13.88
2023-03-02T01:57:58.173Z,14.57
2023-03-02T02:00:29.038Z,12.07
2023-03-02T02:03:09.256Z,11.50
2023-03-02T02:05:43.040Z,15.90
2023-03-02T02:08:10.756Z,16.23
2023-03-02T02:10:39.892Z,10.93
2023-03-02T02:13:11.140Z,12.13
2023-03-02T02:15:39.385Z,13.18
2023-03-02T02:18:06.656Z,17.30
2023-03-02T02:20:36.928Z,14.90
2023-03-02T02:23:17.741Z,16.42
2023-03-02T02:25:55.536Z,13.32
2023-03-02T02:28:29.243Z,14.18
2023-03-02T02:31:23.176Z,12.27
2023-03-02T02:33:57.719Z,11.32
2023-03-02T02:36:33.911Z,11.87
2023-03-02T02:39:08.739Z,14.45
2023-03-02T02:41:39.325Z,16.77
2023-03-02T02:44:07.315Z,14.25
2023-03-02T02:46:35.017Z,14.13
2023-03-02T02:49:04.387Z,10.38
2023-03-02T02:51:33.470Z,15.18
2023-03-02T02:54:02.713Z,12.60
2023-03-02T02:56:37.698Z,16.70
2023-03-02T02:59:19.640Z,16.63
2023-03-02T03:01:48.600Z,15.73
2023-03-02T03:04:20.540Z,13.73
2023-03-02T03:07:00.218Z,15.75
2023-03-02T03:09:28.610Z,15.70
2023-03-02T03:12:04.363Z,14.48
2023-03-02T03:14:39.501Z,15.25
2023-03-02T03:17:12.614Z,21.17
2023-03-02T03:19:47.272Z,19.80
2023-03-02T03:22:16.608Z,18.42
2023-03-02T03:24:46.315Z,22.33
2023-03-02T03:27:16.617Z,21.73
2023-03-02T03:29:50.641Z,20.95
2023-03-02T03:32:21.076Z,20.90
2023-03-02T03:34:50.844Z,24.38
2023-03-02T03:37:28.103Z,23.92
2023-03-02T03:39:55.509Z,24.67
2023-03-02T03:42:24.250Z,26.60
2023-03-02T03:44:52.773Z,27.63
2023-03-02T03:47:20.968Z,25.60
2023-03-02T03:49:49.399Z,29.67
2023-03-02T03:52:16.766Z,36.45
2023-03-02T03:54:43.967Z,31.58
2023-03-02T03:57:12.438Z,38.72
2023-03-02T03:59:40.328Z,34.10
2023-03-02T04:02:08.439Z,33.08
2023-03-02T04:04:39.370Z,39.05
2023-03-02T04:07:14.756Z,37.65
2023-03-02T04:09:43.579Z,44.17
2023-03-02T04:12:13.437Z,46.22
2023-03-02T04:14:45.753Z,43.30
2023-03-02T04:17:13.015Z,46.03
2023-03-02T04:19:43.319Z,47.13
2023-03-02T04:22:10.433Z,51.60
2023-03-02T04:24:37.495Z,52.92
2023-03-02T04:27:05.077Z,48.45
2023-03-02T04:29:33.874Z,48.20
2023-03-02T04:32:03.632Z,52.42
2023-03-02T04:34:32.594Z,54.05
2023-03-02T04:37:00.281Z,55.72
2023-03-02T04:39:27.635Z,54.08
2023-03-02T04:41:55.163Z,56.50
2023-03-02T04:44:23.018Z,57.28
2023-03-02T04:46:50.693Z,59.28
2023-03-02T04:49:19.346Z,63.10
2023-03-02T04:51:48.491Z,68.30
2023-03-02T04:54:21.804Z,66.50
2023-03-02T04:56:50.835Z,57.85
2023-03-02T04:59:20.293Z,61.30
2023-03-02T05:01:47.973Z,66.68
2023-03-02T05:04:15.344Z,62.05
2023-03-02T05:06:42.446Z,64.43
2023-03-02T05:09:09.626Z,60.53
2023-03-02T05:11:38.225Z,63.17
2023-03-02T05:14:07.908Z,68.55
2023-03-02T05:16:37.422Z,63.67
2023-03-02T05:19:06.309Z,60.85
2023-03-02T05:21:33.441Z,64.55
2023-03-02T05:24:00.534Z,64.45
2023-03-02T05:26:28.007Z,65.10
2023-03-02T05:28:56.078Z,64.32
2023-03-02T05:31:44.306Z,67.47
2023-03-02T05:34:14.191Z,68.00
2023-03-02T05:36:41.281Z,65.68
2023-03-02T05:39:08.878Z,62.00
2023-03-02T05:41:36.991Z,67.53
2023-03-02T05:44:04.719Z,59.63
2023-03-02T05:46:32.429Z,64.95
2023-03-02T05:48:59.776Z,67.10
2023-03-02T05:51:27.863Z,61.97
2023-03-02T05:53:54.984Z,65.68
2023-03-02T05:56:22.666Z,59.47
2023-03-02T05:58:49.964Z,67.50
2023-03-02T06:01:17.121Z,58.42
2023-03-02T06:03:44.029Z,63.88
2023-03-02T06:06:14.450Z,64.13
2023-03-02T06:08:43.599Z,65.07
2023-03-02T06:11:11.565Z,63.03
2023-03-02T06:13:39.570Z,63.47
2023-03-02T06:16:07.243Z,65.72
2023-03-02T06:18:35.757Z,62.92
2023-03-02T06:21:03.347Z,62.72
2023-03-02T06:23:30.780Z,61.95
2023-03-02T06:25:58.335Z,63.40
2023-03-02T06:28:25.959Z,68.32
2023-03-02T06:30:52.886Z,55.97
2023-03-02T06:33:21.636Z,62.92
2023-03-02T06:35:49.457Z,64.63
2023-03-02T06:38:17.413Z,65.55
2023-03-02T06:40:44.717Z,66.30
2023-03-02T06:43:11.917Z,58.50
2023-03-02T06:45:39.263Z,65.78
2023-03-02T06:48:07.463Z,60.22
2023-03-02T06:50:35.025Z,63.42
2023-03-02T06:53:02.021Z,59.80
2023-03-02T06:55:29.009Z,58.00
2023-03-02T06:57:56.020Z,56.10
2023-03-02T07:00:28.279Z,60.72
2023-03-02T07:02:56.491Z,54.28
2023-03-02T07:05:24.701Z,58.22
2023-03-02T07:07:52.125Z,58.25
2023-03-02T07:10:19.354Z,55.97
2023-03-02T07:12:46.316Z,57.80
2023-03-02T07:15:14.516Z,60.72
2023-03-02T07:17:44.621Z,56.20
2023-03-02T07:20:17.475Z,60.70
2023-03-02T07:22:45.482Z,55.50
2023-03-02T07:25:13.384Z,57.35
2023-03-02T07:27:40.956Z,56.03
2023-03-02T07:30:09.179Z,57.17
2023-03-02T07:32:36.358Z,58.47
2023-03-02T07:35:03.467Z,58.63
2023-03-02T07:37:30.552Z,59.95
2023-03-02T07:40:00.293Z,58.15
2023-03-02T07:42:27.784Z,59.63
2023-03-02T07:44:57.858Z,56.42
2023-03-02T07:47:25.357Z,59.97
2023-03-02T07:49:52.369Z,59.15
2023-03-02T07:52:19.408Z,57.67
2023-03-02T07:54:46.626Z,54.55
2023-03-02T07:57:16.625Z,56.05
2023-03-02T07:59:44.367Z,54.38
2023-03-02T08:02:17.311Z,56.58
2023-03-02T08:04:44.403Z,55.00
2023-03-02T08:07:11.418Z,53.67
2023-03-02T08:09:40.047Z,53.47
2023-03-02T08:12:06.973Z,54.33
2023-03-02T08:14:34.090Z,55.30
2023-03-02T08:17:02.453Z,53.40
2023-03-02T08:19:29.534Z,62.40
2023-03-02T08:21:56.616Z,54.53
2023-03-02T08:24:23.743Z,58.25
2023-03-02T08:26:50.784Z,55.78
2023-03-02T08:29:18.042Z,51.47
2023-03-02T08:31:45.103Z,52.90
2023-03-02T08:34:12.292Z,52.33
2023-03-02T08:36:40.444Z,55.30
2023-03-02T08:39:07.440Z,55.63
2023-03-02T08:41:35.652Z,55.80
2023-03-02T08:44:03.004Z,54.35
2023-03-02T08:46:31.242Z,54.65
2023-03-02T08:48:58.528Z,54.17
2023-03-02T08:51:26.368Z,50.03
2023-03-02T08:53:57.920Z,53.00
2023-03-02T08:56:30.219Z,53.15
2023-03-02T08:59:03.420Z,48.42
2023-03-02T09:01:34.216Z,51.50
2023-03-02T09:04:02.617Z,50.92
2023-03-02T09:06:31.633Z,49.25
2023-03-02T09:08:59.308Z,48.92
2023-03-02T09:11:26.728Z,52.85
2023-03-02T09:13:54.687Z,45.40
2023-03-02T09:16:22.159Z,50.00
2023-03-02T09:18:49.210Z,47.92
2023-03-02T09:21:16.271Z,45.35
2023-03-02T09:23:43.580Z,42.92
2023-03-02T09:26:11.004Z,40.08
2023-03-02T09:28:39.249Z,38.92
2023-03-02T09:31:07.735Z,41.15
2023-03-02T09:33:34.983Z,43.67
2023-03-02T09:36:10.037Z,42.25
2023-03-02T09:38:37.239Z,40.13
2023-03-02T09:41:19.924Z,36.35
2023-03-02T09:44:02.613Z,38.72
2023-03-02T09:46:46.953Z,34.00
2023-03-02T09:49:26.130Z,36.70
2023-03-02T09:52:21.130Z,34.50
2023-03-02T09:54:48.409Z,36.83
2023-03-02T09:57:26.644Z,34.67
2023-03-02T10:00:19.990Z,33.17
2023-03-02T10:03:27.580Z,34.67
2023-03-02T10:05:56.224Z,34.95
2023-03-02T10:08:29.937Z,31.50
2023-03-02T10:11:15.929Z,35.10
2023-03-02T10:13:49.581Z,33.47
2023-03-02T10:16:31.111Z,33.85
2023-03-02T10:19:41.762Z,35.65
2023-03-02T10:22:44.505Z,32.58
2023-03-02T10:25:29.717Z,33.00
2023-03-02T10:28:11.267Z,36.75
2023-03-02T10:30:40.054Z,36.22
2023-03-02T10:33:16.329Z,31.80
2023-03-02T10:35:51.167Z,34.85
2023-03-02T10:38:21.319Z,32.70
2023-03-02T10:41:00.321Z,35.70
2023-03-02T10:43:45.586Z,38.78
2023-03-02T10:46:13.901Z,37.85
2023-03-02T10:48:52.846Z,30.85
2023-03-02T10:51:25.998Z,33.90
2023-03-02T10:54:07.963Z,37.08
2023-03-02T10:56:35.491Z,31.05
2023-03-02T10:59:31.241Z,37.80
2023-03-02T11:02:23.691Z,34.08
2023-03-02T11:04:57.429Z,33.20
2023-03-02T11:07:27.878Z,34.75
2023-03-02T11:09:57.923Z,34.72
2023-03-02T11:12:24.981Z,35.53
2023-03-02T11:15:20.177Z,28.33
2023-03-02T11:17:52.259Z,30.53
2023-03-02T11:20:31.298Z,32.58
2023-03-02T11:23:15.120Z,34.60
2023-03-02T11:25:59.270Z,30.20
2023-03-02T11:28:36.613Z,27.42
2023-03-02T11:31:10.858Z,29.92
2023-03-02T11:34:07.822Z,30.48
2023-03-02T11:37:03.850Z,30.90
2023-03-02T11:39:55.427Z,27.40
2023-03-02T11:42:36.929Z,33.00
2023-03-02T11:45:39.846Z,34.95
2023-03-02T11:48:09.317Z,31.60
2023-03-02T11:50:55.370Z,29.40
2023-03-02T11:53:27.208Z,27.77
2023-03-02T11:55:54.303Z,28.80
2023-03-02T11:58:28.462Z,32.63
2023-03-02T12:00:56.776Z,28.13
2023-03-02T12:03:45.978Z,30.05
2023-03-02T12:06:21.954Z,31.00
2023-03-02T12:08:51.806Z,30.77
2023-03-02T12:11:19.045Z,32.15
2023-03-02T12:14:07.423Z,30.35
2023-03-02T12:16:41.123Z,27.25
2023-03-02T12:19:28.927Z,30.00
2023-03-02T12:21:56.120Z,30.10
2023-03-02T12:24:34.731Z,28.88
2023-03-02T12:27:15.444Z,28.42
2023-03-02T12:29:51.529Z,34.63
2023-03-02T12:32:32.045Z,26.58
2023-03-02T12:35:08.417Z,26.67
2023-03-02T12:38:01.811Z,26.70
2023-03-02T12:41:06.872Z,25.85
2023-03-02T12:43:35.264Z,23.75
2023-03-02T12:46:08.221Z,29.10
2023-03-02T12:48:48.984Z,30.13
2023-03-02T12:51:25.216Z,28.33
2023-03-02T12:54:14.563Z,28.20
2023-03-02T12:56:42.072Z,38.15
2023-03-02T12:59:25.165Z,36.25
2023-03-02T13:01:52.540Z,33.83
2023-03-02T13:04:28.551Z,31.40
2023-03-02T13:06:55.976Z,28.95
2023-03-02T13:09:23.870Z,31.40
2023-03-02T13:11:54.862Z,31.13
2023-03-02T13:14:29.351Z,31.08
2023-03-02T13:17:04.942Z,25.17
2023-03-02T13:19:33.211Z,33.20
2023-03-02T13:22:00.928Z,34.95
2023-03-02T13:24:49.535Z,33.95
2023-03-02T13:27:22.411Z,31.35
2023-03-02T13:29:50.116Z,27.17
2023-03-02T13:32:22.480Z,31.25
2023-03-02T13:35:00.620Z,27.88
2023-03-02T13:37:39.356Z,30.38
2023-03-02T13:40:24.720Z,34.50
2023-03-02T13:42:51.809Z,33.28
2023-03-02T13:45:28.387Z,27.33
2023-03-02T13:47:57.173Z,35.15
2023-03-02T13:50:32.329Z,34.80
2023-03-02T13:53:05.552Z,27.30
2023-03-02T13:55:33.434Z,27.73
2023-03-02T13:58:01.063Z,29.10
2023-03-02T14:00:33.419Z,24.70
2023-03-02T14:03:00.519Z,33.50
2023-03-02T14:05:33.444Z,31.75
2023-03-02T14:08:01.329Z,30.42
2023-03-02T14:10:28.756Z,30.95
2023-03-02T14:13:04.516Z,30.17
2023-03-02T14:15:31.939Z,30.77
2023-03-02T14:17:58.967Z,30.90
2023-03-02T14:20:26.101Z,26.95
2023-03-02T14:22:53.298Z,34.53
2023-03-02T14:25:20.872Z,33.20
2023-03-02T14:27:48.004Z,38.00
2023-03-02T14:30:20.370Z,39.95
2023-03-02T14:32:47.606Z,43.50
2023-03-02T14:35:16.755Z,39.22
2023-03-02T14:37:48.309Z,38.63
2023-03-02T14:40:25.849Z,41.15
2023-03-02T14:42:53.376Z,42.88
2023-03-02T14:45:21.857Z,37.10
2023-03-02T14:47:49.189Z,39.75
2023-03-02T14:50:21.575Z,53.28
2023-03-02T14:52:52.459Z,43.63
2023-03-02T14:55:28.530Z,38.20
2023-03-02T14:58:10.593Z,47.08
2023-03-02T15:00:37.626Z,38.55
2023-03-02T15:03:04.555Z,43.95
2023-03-02T15:05:32.368Z,41.20
2023-03-02T15:07:59.786Z,50.40
2023-03-02T15:10:27.016Z,48.97
2023-03-02T15:12:54.002Z,49.25
2023-03-02T15:15:21.127Z,44.00
2023-03-02T15:17:48.304Z,45.90
2023-03-02T15:20:16.829Z,46.83
2023-03-02T15:22:44.467Z,49.25
2023-03-02T15:25:11.754Z,49.85
2023-03-02T15:27:38.802Z,51.08
2023-03-02T15:30:06.432Z,62.20
2023-03-02T15:32:33.552Z,66.07
2023-03-02T15:35:00.705Z,60.60
2023-03-02T15:37:28.449Z,53.75
2023-03-02T15:39:56.884Z,57.58
2023-03-02T15:42:23.868Z,56.42
2023-03-02T15:44:51.085Z,55.20
2023-03-02T15:47:18.376Z,54.67
2023-03-02T15:49:45.407Z,56.17
2023-03-02T15:52:13.147Z,52.42
2023-03-02T15:54:40.813Z,52.65
2023-03-02T15:57:09.434Z,53.92
2023-03-02T15:59:37.195Z,62.22
2023-03-02T16:02:04.944Z,47.80
2023-03-02T16:04:33.848Z,52.90
2023-03-02T16:07:01.756Z,57.05
2023-03-02T16:09:29.241Z,57.70
2023-03-02T16:11:56.258Z,58.65
2023-03-02T16:14:23.865Z,54.58
2023-03-02T16:16:51.306Z,50.67
2023-03-02T16:19:19.647Z,51.28
2023-03-02T16:21:47.595Z,49.53
2023-03-02T16:24:16.208Z,57.08
2023-03-02T16:26:43.756Z,63.70
2023-03-02T16:29:12.419Z,64.00
2023-03-02T16:31:40.163Z,63.20
2023-03-02T16:34:09.072Z,54.25
2023-03-02T16:36:38.207Z,62.58
2023-03-02T16:39:06.610Z,63.08
2023-03-02T16:41:34.278Z,68.70
2023-03-02T16:44:02.324Z,63.60
2023-03-02T16:46:31.699Z,64.60
2023-03-02T16:48:59.011Z,65.90
2023-03-02T16:51:26.071Z,67.30
2023-03-02T16:53:53.510Z,62.08
2023-03-02T16:56:20.793Z,57.78
2023-03-02T16:58:47.855Z,68.10
2023-03-02T17:01:20.322Z,75.80
2023-03-02T17:03:49.541Z,67.00
2023-03-02T17:06:18.382Z,67.95
2023-03-02T17:08:45.710Z,65.43
2023-03-02T17:11:13.287Z,69.90
2023-03-02T17:13:40.405Z,75.45
2023-03-02T17:16:07.898Z,74.55
2023-03-02T17:18:35.327Z,61.20
2023-03-02T17:21:04.348Z,71.70
2023-03-02T17:23:31.571Z,73.57
2023-03-02T17:25:58.522Z,76.60
2023-03-02T17:28:25.834Z,69.30
2023-03-02T17:30:52.886Z,78.45
2023-03-02T17:33:20.070Z,76.32
2023-03-02T17:35:47.377Z,67.97
2023-03-02T17:38:15.380Z,77.82
2023-03-02T17:40:43.196Z,69.70
2023-03-02T17:43:11.815Z,75.45
2023-03-02T17:45:39.823Z,80.32
2023-03-02T17:48:07.053Z,69.25
2023-03-02T17:50:34.069Z,75.13
2023-03-02T17:53:02.287Z,85.82
2023-03-02T17:55:30.060Z,77.80
2023-03-02T17:57:57.233Z,70.85
2023-03-02T18:00:24.999Z,77.45
2023-03-02T18:02:52.804Z,74.65
2023-03-02T18:05:20.923Z,75.63
2023-03-02T18:07:48.202Z,79.35
2023-03-02T18:10:15.428Z,76.00
2023-03-02T18:12:42.879Z,82.68
2023-03-02T18:15:10.385Z,87.68
2023-03-02T18:17:37.539Z,80.90
2023-03-02T18:20:04.912Z,82.07
2023-03-02T18:22:32.018Z,80.00
2023-03-02T18:24:59.295Z,80.00
2023-03-02T18:27:26.460Z,82.70
2023-03-02T18:29:53.428Z,78.97
2023-03-02T18:32:20.593Z,77.32
2023-03-02T18:34:48.047Z,73.95
2023-03-02T18:37:15.622Z,75.38
2023-03-02T18:39:42.921Z,72.43
2023-03-02T18:42:12.487Z,76.95
2023-03-02T18:44:39.917Z,76.57
2023-03-02T18:47:07.937Z,73.18
2023-03-02T18:49:35.084Z,84.28
2023-03-02T18:52:05.906Z,79.43
2023-03-02T18:54:33.103Z,75.05
2023-03-02T18:57:01.842Z,67.13
2023-03-02T18:59:29.437Z,72.30
2023-03-02T19:01:57.667Z,66.25
2023-03-02T19:04:26.741Z,70.70
2023-03-02T19:06:56.419Z,73.80
2023-03-02T19:09:24.262Z,68.07
2023-03-02T19:11:51.276Z,65.07
2023-03-02T19:14:18.533Z,63.92
2023-03-02T19:16:46.426Z,69.38
2023-03-02T19:19:13.667Z,67.53
2023-03-02T19:21:40.697Z,57.55
2023-03-02T19:24:08.147Z,67.07
2023-03-02T19:26:35.734Z,57.65
2023-03-02T19:29:02.922Z,70.03
2023-03-02T19:31:30.727Z,72.30
2023-03-02T19:33:58.890Z,74.53
2023-03-02T19:36:26.412Z,65.88
2023-03-02T19:38:53.456Z,69.28
2023-03-02T19:41:20.910Z,67.70
2023-03-02T19:43:48.730Z,64.72
2023-03-02T19:46:17.451Z,74.47
2023-03-02T19:48:44.846Z,61.25
2023-03-02T19:51:12.241Z,69.95
2023-03-02T19:53:40.360Z,65.57
2023-03-02T19:56:12.757Z,65.70
2023-03-02T19:58:48.228Z,76.13
2023-03-02T20:01:17.345Z,61.65
2023-03-02T20:03:44.596Z,66.57
2023-03-02T20:06:11.689Z,56.58
2023-03-02T20:08:38.978Z,62.15
2023-03-02T20:11:06.535Z,68.68
2023-03-02T20:13:33.930Z,62.58
2023-03-02T20:16:01.572Z,61.97
2023-03-02T20:18:29.382Z,60.13
2023-03-02T20:20:56.484Z,61.58
2023-03-02T20:23:23.543Z,53.67
2023-03-02T20:25:51.124Z,53.17
2023-03-02T20:28:22.787Z,50.30
2023-03-02T20:31:00.664Z,49.22
2023-03-02T20:33:31.872Z,53.33
2023-03-02T20:36:00.848Z,48.00
2023-03-02T20:38:44.317Z,49.75
2023-03-02T20:41:13.958Z,52.10
2023-03-02T20:43:41.721Z,45.55
2023-03-02T20:46:10.366Z,47.17
2023-03-02T20:48:37.372Z,46.88
2023-03-02T20:51:05.233Z,45.95
2023-03-02T20:53:32.271Z,63.33
2023-03-02T20:55:59.360Z,171.05
2023-03-02T20:58:26.391Z,55.63
2023-03-02T21:00:55.993Z,50.70
2023-03-02T21:03:23.166Z,51.85
2023-03-02T21:05:50.264Z,49.70
2023-03-02T21:08:17.613Z,48.22
2023-03-02T21:10:45.017Z,51.63
2023-03-02T21:13:12.440Z,57.97
2023-03-02T21:15:41.297Z,64.30
2023-03-02T21:18:08.330Z,63.15
2023-03-02T21:20:36.010Z,63.58
2023-03-02T21:23:03.766Z,72.65
2023-03-02T21:25:31.065Z,57.67
2023-03-02T21:27:59.524Z,63.65
2023-03-02T21:30:30.013Z,64.47
2023-03-02T21:32:57.610Z,75.90
2023-03-02T21:35:25.363Z,66.32
2023-03-02T21:37:56.381Z,67.45
2023-03-02T21:40:27.136Z,51.28
2023-03-02T21:42:55.569Z,59.40
2023-03-02T21:45:24.247Z,64.03
2023-03-02T21:47:51.412Z,61.53
2023-03-02T21:50:23.948Z,56.47
2023-03-02T21:52:51.285Z,58.75
2023-03-02T21:55:18.406Z,55.05
2023-03-02T21:57:45.677Z,55.83
2023-03-02T22:00:20.837Z,59.00
2023-03-02T22:02:48.519Z,61.00
2023-03-02T22:05:15.731Z,50.05
2023-03-02T22:07:42.958Z,55.47
2023-03-02T22:10:30.878Z,50.90
2023-03-02T22:13:11.715Z,56.63
2023-03-02T22:15:39.911Z,50.90
2023-03-02T22:18:21.036Z,58.65
2023-03-02T22:20:52.205Z,55.80
2023-03-02T22:23:22.020Z,50.65
2023-03-02T22:25:51.546Z,52.28
2023-03-02T22:28:25.035Z,50.03
2023-03-02T22:30:57.110Z,49.35
2023-03-02T22:33:26.290Z,52.03
2023-03-02T22:36:00.839Z,53.72
2023-03-02T22:38:30.197Z,53.80
2023-03-02T22:40:57.962Z,49.50
2023-03-02T22:43:29.579Z,45.80
2023-03-02T22:46:21.919Z,45.08
2023-03-02T22:48:51.323Z,53.53
2023-03-02T22:51:21.538Z,46.28
2023-03-02T22:53:52.556Z,50.97
2023-03-02T22:56:39.500Z,49.15
2023-03-02T22:59:22.867Z,43.63
2023-03-02T23:01:50.563Z,49.65
2023-03-02T23:04:22.058Z,46.22
2023-03-02T23:06:51.830Z,49.45
2023-03-02T23:09:24.876Z,44.35
2023-03-02T23:11:55.885Z,45.92
2023-03-02T23:14:23.131Z,50.92
2023-03-02T23:17:00.244Z,44.80
2023-03-02T23:19:31.611Z,42.10
2023-03-02T23:21:59.606Z,44.55
2023-03-02T23:24:26.660Z,42.30
2023-03-02T23:26:53.713Z,41.13
2023-03-02T23:29:21.945Z,45.83
2023-03-02T23:31:49.789Z,41.75
2023-03-02T23:34:17.189Z,44.97
2023-03-02T23:36:44.138Z,43.53
2023-03-02T23:39:11.903Z,37.50
2023-03-02T23:41:39.422Z,39.92
2023-03-02T23:44:07.168Z,39.60
2023-03-02T23:46:34.727Z,40.63
2023-03-02T23:49:01.853Z,38.63
2023-03-02T23:51:28.926Z,40.97
2023-03-02T23:53:56.288Z,37.00
2023-03-02T23:56:23.766Z,39.33
2023-03-02T23:58:51.090Z,44.08
